WMT2306 LIBD-LATI
Flight info
| Callsign | WMT2306 |
|---|---|
| Flight time | 0h 37m |
| Altitude | 19000 |
| Route | DOLON L612 KAPPO P92 DIRES |
| Aircraft | A20N/M-SDE2E3FGHIRWXY/LB1 |
Departure
| Time | 2026-04-22 17:43 |
|---|---|
| Airport | Bari Karol Wojtyła International Airport (LIBD) |
Arrival
| Time | 2026-04-22 18:21 |
|---|---|
| Airport | Tirana International Airport Mother Teresa (LATI) |
| Time | Latitude | Longitude | Altitude | Speed | Heading |
|---|---|---|---|---|---|
| 2026-04-22 16:56 | 41.13499 | 16.76236 | 146 ft | 0 kts | 159° |
| 2026-04-22 17:30 | 41.13512 | 16.76229 | 145 ft | 2 kts | 159° |
| 2026-04-22 17:30 | 41.13527 | 16.76221 | 145 ft | 2 kts | 157° |
| 2026-04-22 17:31 | 41.13542 | 16.76212 | 144 ft | 2 kts | 153° |
| 2026-04-22 17:31 | 41.13556 | 16.76200 | 144 ft | 2 kts | 127° |
| 2026-04-22 17:31 | 41.13559 | 16.76185 | 144 ft | 1 kts | 69° |
| 2026-04-22 17:38 | 41.13559 | 16.76186 | 144 ft | 0 kts | 69° |
| 2026-04-22 17:38 | 41.13596 | 16.76318 | 140 ft | 23 kts | 70° |
| 2026-04-22 17:38 | 41.13605 | 16.76351 | 139 ft | 0 kts | 69° |
| 2026-04-22 17:39 | 41.13630 | 16.76442 | 135 ft | 17 kts | 70° |
| 2026-04-22 17:40 | 41.13712 | 16.76555 | 129 ft | 16 kts | 21° |
| 2026-04-22 17:40 | 41.13811 | 16.76585 | 125 ft | 13 kts | 51° |
| 2026-04-22 17:40 | 41.13856 | 16.76734 | 117 ft | 30 kts | 70° |
| 2026-04-22 17:40 | 41.13947 | 16.77053 | 111 ft | 43 kts | 66° |
| 2026-04-22 17:41 | 41.14019 | 16.77304 | 109 ft | 21 kts | 70° |
| 2026-04-22 17:41 | 41.14094 | 16.77398 | 103 ft | 15 kts | 21° |
| 2026-04-22 17:41 | 41.14125 | 16.77412 | 101 ft | 0 kts | 16° |
| 2026-04-22 17:42 | 41.14137 | 16.77415 | 101 ft | 13 kts | 13° |
| 2026-04-22 17:43 | 41.14212 | 16.77321 | 100 ft | 16 kts | 260° |
| 2026-04-22 17:43 | 41.14111 | 16.76977 | 113 ft | 82 kts | 249° |
| 2026-04-22 17:43 | 41.13822 | 16.75948 | 170 ft | 152 kts | 250° |
| 2026-04-22 17:43 | 41.13431 | 16.74621 | 926 ft | 154 kts | 246° |
| 2026-04-22 17:44 | 41.12991 | 16.73318 | 1750 ft | 154 kts | 246° |
| 2026-04-22 17:44 | 41.12547 | 16.71960 | 2432 ft | 169 kts | 248° |
| 2026-04-22 17:44 | 41.12089 | 16.70430 | 3028 ft | 188 kts | 249° |
| 2026-04-22 17:44 | 41.11612 | 16.68715 | 3558 ft | 211 kts | 250° |
| 2026-04-22 17:45 | 41.11103 | 16.66822 | 4321 ft | 221 kts | 251° |
| 2026-04-22 17:45 | 41.10597 | 16.64922 | 5321 ft | 222 kts | 251° |
| 2026-04-22 17:45 | 41.10076 | 16.62960 | 6296 ft | 226 kts | 251° |
| 2026-04-22 17:45 | 41.09548 | 16.60977 | 7244 ft | 229 kts | 251° |
| 2026-04-22 17:46 | 41.09026 | 16.58985 | 8162 ft | 233 kts | 255° |
| 2026-04-22 17:46 | 41.08984 | 16.56843 | 9049 ft | 236 kts | 285° |
| 2026-04-22 17:46 | 41.09788 | 16.54951 | 9903 ft | 240 kts | 316° |
| 2026-04-22 17:46 | 41.11213 | 16.53851 | 10734 ft | 244 kts | 346° |
| 2026-04-22 17:47 | 41.12911 | 16.53843 | 11551 ft | 248 kts | 16° |
| 2026-04-22 17:47 | 41.14513 | 16.54746 | 12365 ft | 252 kts | 28° |
| 2026-04-22 17:47 | 41.16058 | 16.55894 | 13197 ft | 255 kts | 30° |
| 2026-04-22 17:47 | 41.17618 | 16.57050 | 14008 ft | 258 kts | 28° |
| 2026-04-22 17:48 | 41.18673 | 16.57791 | 14512 ft | 260 kts | 27° |
| 2026-04-22 17:48 | 41.20838 | 16.59224 | 15518 ft | 264 kts | 25° |
| 2026-04-22 17:48 | 41.22494 | 16.60358 | 16243 ft | 268 kts | 36° |
| 2026-04-22 17:48 | 41.23731 | 16.62200 | 16914 ft | 271 kts | 64° |
| 2026-04-22 17:49 | 41.24242 | 16.64617 | 17550 ft | 276 kts | 82° |
| 2026-04-22 17:49 | 41.24470 | 16.67250 | 17812 ft | 298 kts | 84° |
| 2026-04-22 17:49 | 41.24671 | 16.70066 | 17998 ft | 320 kts | 85° |
| 2026-04-22 17:49 | 41.24897 | 16.73107 | 18204 ft | 341 kts | 84° |
| 2026-04-22 17:50 | 41.25155 | 16.76352 | 18400 ft | 362 kts | 85° |
| 2026-04-22 17:50 | 41.25219 | 16.79747 | 18621 ft | 379 kts | 93° |
| 2026-04-22 17:50 | 41.24909 | 16.83264 | 18798 ft | 383 kts | 101° |
| 2026-04-22 17:50 | 41.24260 | 16.86695 | 18893 ft | 383 kts | 105° |
| 2026-04-22 17:51 | 41.23565 | 16.90118 | 18950 ft | 384 kts | 105° |
| 2026-04-22 17:51 | 41.22877 | 16.93553 | 18954 ft | 383 kts | 105° |
| 2026-04-22 17:51 | 41.22192 | 16.96981 | 18949 ft | 383 kts | 105° |
| 2026-04-22 17:51 | 41.21507 | 17.00408 | 18953 ft | 383 kts | 105° |
| 2026-04-22 17:52 | 41.20820 | 17.03838 | 18950 ft | 383 kts | 105° |
| 2026-04-22 17:52 | 41.20140 | 17.07219 | 18953 ft | 383 kts | 105° |
| 2026-04-22 17:52 | 41.19451 | 17.10641 | 18952 ft | 383 kts | 105° |
| 2026-04-22 17:52 | 41.18622 | 17.14004 | 18954 ft | 383 kts | 114° |
| 2026-04-22 17:53 | 41.17352 | 17.17129 | 18950 ft | 383 kts | 124° |
| 2026-04-22 17:53 | 41.15683 | 17.19922 | 23715 ft | 403 kts | 132° |
| 2026-04-22 17:53 | 41.13769 | 17.22744 | 23336 ft | 414 kts | 132° |
| 2026-04-22 17:53 | 41.11851 | 17.25591 | 22824 ft | 412 kts | 131° |
| 2026-04-22 17:54 | 41.09940 | 17.28454 | 21935 ft | 416 kts | 132° |
| 2026-04-22 17:54 | 41.07984 | 17.31340 | 20830 ft | 424 kts | 132° |
| 2026-04-22 17:54 | 41.06046 | 17.34192 | 20433 ft | 414 kts | 132° |
| 2026-04-22 17:54 | 41.04158 | 17.36973 | 20317 ft | 396 kts | 132° |
| 2026-04-22 17:55 | 41.02956 | 17.38748 | 20244 ft | 386 kts | 132° |
| 2026-04-22 17:55 | 41.00540 | 17.42314 | 20090 ft | 390 kts | 132° |
| 2026-04-22 17:55 | 40.98747 | 17.44959 | 19979 ft | 389 kts | 132° |
| 2026-04-22 17:55 | 40.96936 | 17.47630 | 19863 ft | 388 kts | 132° |
| 2026-04-22 17:56 | 40.95118 | 17.50309 | 19752 ft | 388 kts | 132° |
| 2026-04-22 17:56 | 40.93337 | 17.52931 | 19640 ft | 387 kts | 132° |
| 2026-04-22 17:56 | 40.91533 | 17.55584 | 19536 ft | 386 kts | 132° |
| 2026-04-22 17:56 | 40.90339 | 17.57339 | 19452 ft | 386 kts | 132° |
| 2026-04-22 17:57 | 40.88542 | 17.59979 | 19339 ft | 385 kts | 132° |
| 2026-04-22 17:57 | 40.86173 | 17.63469 | 19114 ft | 383 kts | 132° |
| 2026-04-22 17:57 | 40.84400 | 17.66087 | 19027 ft | 382 kts | 132° |
| 2026-04-22 17:57 | 40.83213 | 17.67838 | 19009 ft | 383 kts | 132° |
| 2026-04-22 17:58 | 40.80848 | 17.71323 | 19007 ft | 383 kts | 132° |
| 2026-04-22 17:58 | 40.79646 | 17.73092 | 19007 ft | 383 kts | 132° |
| 2026-04-22 17:58 | 40.77861 | 17.75717 | 19007 ft | 383 kts | 132° |
| 2026-04-22 17:58 | 40.76100 | 17.78304 | 19007 ft | 383 kts | 132° |
| 2026-04-22 17:59 | 40.74317 | 17.80920 | 19007 ft | 383 kts | 132° |
| 2026-04-22 17:59 | 40.72530 | 17.83539 | 19007 ft | 383 kts | 132° |
| 2026-04-22 17:59 | 40.70743 | 17.86158 | 19007 ft | 383 kts | 132° |
| 2026-04-22 17:59 | 40.68957 | 17.88771 | 19007 ft | 383 kts | 132° |
| 2026-04-22 18:00 | 40.67774 | 17.90502 | 19007 ft | 383 kts | 132° |
| 2026-04-22 18:00 | 40.65373 | 17.94010 | 19007 ft | 383 kts | 132° |
| 2026-04-22 18:00 | 40.63650 | 17.96627 | 19004 ft | 383 kts | 126° |
| 2026-04-22 18:00 | 40.62436 | 17.99748 | 19008 ft | 384 kts | 107° |
| 2026-04-22 18:01 | 40.62011 | 18.03207 | 19008 ft | 384 kts | 89° |
| 2026-04-22 18:01 | 40.62405 | 18.06664 | 19010 ft | 384 kts | 74° |
| 2026-04-22 18:01 | 40.63185 | 18.10042 | 19007 ft | 384 kts | 72° |
| 2026-04-22 18:01 | 40.64006 | 18.13396 | 19007 ft | 384 kts | 72° |
| 2026-04-22 18:02 | 40.64806 | 18.16704 | 19006 ft | 384 kts | 72° |
| 2026-04-22 18:02 | 40.65599 | 18.20068 | 19007 ft | 384 kts | 73° |
| 2026-04-22 18:02 | 40.66374 | 18.23428 | 19007 ft | 384 kts | 73° |
| 2026-04-22 18:02 | 40.67142 | 18.26802 | 19007 ft | 384 kts | 73° |
| 2026-04-22 18:03 | 40.67906 | 18.30175 | 19007 ft | 384 kts | 73° |
| 2026-04-22 18:03 | 40.68669 | 18.33551 | 19007 ft | 384 kts | 73° |
| 2026-04-22 18:03 | 40.69423 | 18.36890 | 19007 ft | 384 kts | 73° |
| 2026-04-22 18:03 | 40.70181 | 18.40257 | 19007 ft | 384 kts | 73° |
| 2026-04-22 18:04 | 40.70942 | 18.43639 | 19007 ft | 384 kts | 73° |
| 2026-04-22 18:04 | 40.71702 | 18.47019 | 19006 ft | 384 kts | 73° |
| 2026-04-22 18:04 | 40.72461 | 18.50401 | 19008 ft | 384 kts | 73° |
| 2026-04-22 18:04 | 40.73209 | 18.53742 | 19008 ft | 384 kts | 73° |
| 2026-04-22 18:05 | 40.73967 | 18.57127 | 19007 ft | 384 kts | 73° |
| 2026-04-22 18:05 | 40.74720 | 18.60503 | 19008 ft | 384 kts | 73° |
| 2026-04-22 18:05 | 40.75576 | 18.63843 | 19006 ft | 384 kts | 67° |
| 2026-04-22 18:05 | 40.76752 | 18.66953 | 19007 ft | 384 kts | 59° |
| 2026-04-22 18:06 | 40.78115 | 18.69999 | 19007 ft | 384 kts | 59° |
| 2026-04-22 18:06 | 40.79462 | 18.73041 | 19007 ft | 384 kts | 59° |
| 2026-04-22 18:06 | 40.80807 | 18.76095 | 19006 ft | 384 kts | 59° |
| 2026-04-22 18:06 | 40.82148 | 18.79144 | 19007 ft | 384 kts | 59° |
| 2026-04-22 18:07 | 40.83486 | 18.82190 | 19007 ft | 384 kts | 59° |
| 2026-04-22 18:07 | 40.84827 | 18.85243 | 19007 ft | 384 kts | 59° |
| 2026-04-22 18:07 | 40.86151 | 18.88260 | 18905 ft | 382 kts | 59° |
| 2026-04-22 18:07 | 40.87486 | 18.91306 | 18408 ft | 384 kts | 60° |
| 2026-04-22 18:08 | 40.88873 | 18.94357 | 17589 ft | 389 kts | 56° |
| 2026-04-22 18:08 | 40.90555 | 18.97198 | 16548 ft | 396 kts | 47° |
| 2026-04-22 18:08 | 40.92423 | 18.99875 | 15388 ft | 405 kts | 47° |
| 2026-04-22 18:08 | 40.94355 | 19.02654 | 14204 ft | 413 kts | 47° |
| 2026-04-22 18:09 | 40.96299 | 19.05464 | 13338 ft | 410 kts | 47° |
| 2026-04-22 18:09 | 40.98194 | 19.08209 | 12653 ft | 403 kts | 47° |
| 2026-04-22 18:09 | 41.00034 | 19.10880 | 12536 ft | 382 kts | 47° |
| 2026-04-22 18:09 | 41.01786 | 19.13427 | 12424 ft | 363 kts | 47° |
| 2026-04-22 18:10 | 41.03446 | 19.15842 | 12313 ft | 346 kts | 47° |
| 2026-04-22 18:10 | 41.05003 | 19.18252 | 12205 ft | 346 kts | 54° |
| 2026-04-22 18:10 | 41.06227 | 19.20958 | 12096 ft | 341 kts | 64° |
| 2026-04-22 18:10 | 41.07113 | 19.23857 | 11539 ft | 341 kts | 69° |
| 2026-04-22 18:11 | 41.07950 | 19.26839 | 10665 ft | 349 kts | 69° |
| 2026-04-22 18:11 | 41.08807 | 19.29889 | 9711 ft | 358 kts | 69° |
| 2026-04-22 18:11 | 41.09693 | 19.33031 | 8659 ft | 367 kts | 69° |
| 2026-04-22 18:11 | 41.10600 | 19.36241 | 7582 ft | 376 kts | 69° |
| 2026-04-22 18:12 | 41.11511 | 19.39464 | 6778 ft | 374 kts | 69° |
| 2026-04-22 18:12 | 41.12418 | 19.42675 | 6275 ft | 365 kts | 69° |
| 2026-04-22 18:12 | 41.12996 | 19.44723 | 6201 ft | 351 kts | 69° |
| 2026-04-22 18:12 | 41.14093 | 19.48613 | 6056 ft | 327 kts | 69° |
| 2026-04-22 18:13 | 41.14869 | 19.51369 | 6005 ft | 309 kts | 69° |
| 2026-04-22 18:13 | 41.15599 | 19.53966 | 6006 ft | 290 kts | 69° |
| 2026-04-22 18:13 | 41.16285 | 19.56407 | 6002 ft | 273 kts | 69° |
| 2026-04-22 18:13 | 41.16922 | 19.58696 | 6005 ft | 256 kts | 71° |
| 2026-04-22 18:14 | 41.17327 | 19.60929 | 5757 ft | 252 kts | 82° |
| 2026-04-22 18:14 | 41.17504 | 19.63276 | 5218 ft | 260 kts | 84° |
| 2026-04-22 18:14 | 41.17679 | 19.65704 | 4628 ft | 268 kts | 84° |
| 2026-04-22 18:14 | 41.17863 | 19.68162 | 4402 ft | 261 kts | 84° |
| 2026-04-22 18:15 | 41.18041 | 19.70514 | 4292 ft | 250 kts | 84° |
| 2026-04-22 18:15 | 41.18356 | 19.72710 | 4173 ft | 240 kts | 65° |
| 2026-04-22 18:15 | 41.19361 | 19.74376 | 4071 ft | 226 kts | 33° |
| 2026-04-22 18:15 | 41.20786 | 19.74998 | 4001 ft | 209 kts | 358° |
| 2026-04-22 18:16 | 41.22162 | 19.74783 | 4002 ft | 195 kts | 351° |
| 2026-04-22 18:16 | 41.23446 | 19.74532 | 3994 ft | 175 kts | 351° |
| 2026-04-22 18:16 | 41.24557 | 19.74337 | 3999 ft | 151 kts | 352° |
| 2026-04-22 18:16 | 41.25610 | 19.74171 | 3997 ft | 153 kts | 353° |
| 2026-04-22 18:17 | 41.26668 | 19.74018 | 4013 ft | 152 kts | 353° |
| 2026-04-22 18:17 | 41.27735 | 19.73873 | 3667 ft | 157 kts | 353° |
| 2026-04-22 18:17 | 41.28801 | 19.73745 | 3356 ft | 153 kts | 354° |
| 2026-04-22 18:17 | 41.29876 | 19.73622 | 2939 ft | 156 kts | 354° |
| 2026-04-22 18:18 | 41.30961 | 19.73494 | 2560 ft | 156 kts | 353° |
| 2026-04-22 18:18 | 41.32038 | 19.73340 | 2155 ft | 157 kts | 352° |
| 2026-04-22 18:18 | 41.33161 | 19.73113 | 1479 ft | 167 kts | 353° |
| 2026-04-22 18:18 | 41.34267 | 19.72963 | 1246 ft | 155 kts | 355° |
| 2026-04-22 18:19 | 41.35304 | 19.72879 | 1019 ft | 146 kts | 354° |
| 2026-04-22 18:19 | 41.36296 | 19.72779 | 808 ft | 140 kts | 355° |
| 2026-04-22 18:19 | 41.37260 | 19.72661 | 643 ft | 137 kts | 353° |
| 2026-04-22 18:19 | 41.38197 | 19.72530 | 519 ft | 138 kts | 353° |
| 2026-04-22 18:20 | 41.39156 | 19.72381 | 393 ft | 139 kts | 352° |
| 2026-04-22 18:20 | 41.40138 | 19.72226 | 203 ft | 142 kts | 354° |
| 2026-04-22 18:20 | 41.41086 | 19.72108 | 127 ft | 125 kts | 354° |
| 2026-04-22 18:20 | 41.41668 | 19.72029 | 117 ft | 53 kts | 355° |
| 2026-04-22 18:21 | 41.41877 | 19.71986 | 117 ft | 14 kts | 303° |
| 2026-04-22 18:21 | 41.41872 | 19.71868 | 118 ft | 13 kts | 263° |
| 2026-04-22 18:21 | 41.41866 | 19.71770 | 119 ft | 11 kts | 265° |
| 2026-04-22 18:21 | 41.41860 | 19.71665 | 115 ft | 13 kts | 266° |
| 2026-04-22 18:22 | 41.41891 | 19.71588 | 119 ft | 8 kts | 350° |
| 2026-04-22 18:22 | 41.41943 | 19.71576 | 116 ft | 5 kts | 331° |
| 2026-04-22 18:22 | 41.41955 | 19.71523 | 117 ft | 5 kts | 276° |
| 2026-04-22 18:22 | 41.41954 | 19.71516 | 117 ft | 0 kts | 264° |